Time,TemperatureF,DewpointF,PressureIn,WindDirection,WindDirectionDegrees,WindSpeedMPH,WindSpeedGustMPH,Humidity,HourlyPrecipIn,Conditions,Clouds,dailyrainin,SoftwareType,DateUTC
2013-03-24 00:01:00,29.5,23.2,30.01,NNE,22,6.9,6.9,77,0.00,CLR,,0.00,WeatherDisplay:10.37,2013-03-24 05:01:00,
2013-03-24 00:06:00,29.7,23.3,30.02,NNE,22,4.6,5.5,77,0.00,CLR,,0.00,WeatherDisplay:10.37,2013-03-24 05:06:00,
2013-03-24 00:11:00,29.5,23.2,30.01,NNE,22,4.6,4.6,77,0.00,CLR,,0.00,WeatherDisplay:10.37,2013-03-24 05:11:00,
2013-03-24 00:16:00,29.3,23.0,30.01,NNE,22,3.8,4.1,77,0.00,CLR,,0.00,WeatherDisplay:10.37,2013-03-24 05:16:00,
2013-03-24 00:21:00,29.1,22.8,30.01,NNE,22,5.8,5.8,77,0.00,CLR,,0.00,WeatherDisplay:10.37,2013-03-24 05:21:00,
2013-03-24 00:26:00,29.1,22.8,30.01,NNE,22,6.2,6.6,77,0.00,CLR,,0.00,WeatherDisplay:10.37,2013-03-24 05:26:00,
2013-03-24 00:31:00,29.1,22.8,30.00,NNE,22,5.9,6.4,77,0.00,CLR,,0.00,WeatherDisplay:10.37,2013-03-24 05:31:00,
2013-03-24 00:36:00,29.1,22.8,30.00,NE,45,5.8,5.8,77,0.00,CLR,,0.00,WeatherDisplay:10.37,2013-03-24 05:36:00,
2013-03-24 00:41:00,29.1,22.8,30.01,NE,45,5.8,6.1,77,0.00,CLR,,0.00,WeatherDisplay:10.37,2013-03-24 05:41:00,
2013-03-24 00:46:00,29.1,22.8,30.01,NNE,22,5.8,5.8,77,0.00,CLR,,0.00,WeatherDisplay:10.37,2013-03-24 05:46:00,
2013-03-24 00:51:00,29.1,22.8,30.01,NE,45,2.3,2.3,77,0.00,CLR,,0.00,WeatherDisplay:10.37,2013-03-24 05:51:00,
2013-03-24 00:56:00,29.1,22.8,30.01,NNE,22,3.5,3.5,77,0.00,CLR,,0.00,WeatherDisplay:10.37,2013-03-24 05:56:00,
2013-03-24 01:01:00,29.3,23.0,30.02,NNE,22,5.8,5.8,77,0.00,CLR,,0.00,WeatherDisplay:10.37,2013-03-24 06:01:00,
2013-03-24 01:06:00,29.3,23.0,30.01,NNE,22,1.1,1.1,77,0.00,CLR,,0.00,WeatherDisplay:10.37,2013-03-24 06:06:00,
2013-03-24 01:11:00,29.5,23.2,30.02,NNE,22,1.4,1.4,77,0.00,CLR,,0.00,WeatherDisplay:10.37,2013-03-24 06:11:00,
2013-03-24 01:16:00,29.5,23.2,30.01,NNE,22,3.5,3.8,77,0.00,CLR,,0.00,WeatherDisplay:10.37,2013-03-24 06:16:00,
2013-03-24 01:21:00,29.5,23.2,30.01,NNE,22,2.3,2.3,77,0.00,CLR,,0.00,WeatherDisplay:10.37,2013-03-24 06:21:00,
2013-03-24 01:26:00,29.5,23.2,30.01,NNE,22,1.1,1.2,77,0.00,CLR,,0.00,WeatherDisplay:10.37,2013-03-24 06:26:00,
2013-03-24 01:31:00,29.5,23.2,30.01,NNE,22,3.5,3.5,77,0.00,CLR,,0.00,WeatherDisplay:10.37,2013-03-24 06:31:00,
2013-03-24 01:36:00,29.7,23.3,30.01,NNE,22,6.8,6.8,77,0.00,CLR,,0.00,WeatherDisplay:10.37,2013-03-24 06:36:00,
2013-03-24 01:41:00,29.7,23.6,30.01,NNE,22,5.8,6.1,78,0.00,CLR,,0.00,WeatherDisplay:10.37,2013-03-24 06:41:00,
2013-03-24 01:46:00,29.7,23.6,30.01,NNE,22,6.9,7.2,78,0.00,CLR,,0.00,WeatherDisplay:10.37,2013-03-24 06:46:00,
2013-03-24 01:51:00,29.5,23.5,30.01,North,0,4.6,4.6,78,0.00,CLR,,0.00,WeatherDisplay:10.37,2013-03-24 06:51:00,
2013-03-24 01:56:00,29.3,23.3,30.02,North,0,8.1,8.1,78,0.00,CLR,,0.00,WeatherDisplay:10.37,2013-03-24 06:56:00,
2013-03-24 02:01:00,29.3,23.3,30.01,North,0,5.1,5.5,78,0.00,CLR,,0.00,WeatherDisplay:10.37,2013-03-24 07:01:00,
2013-03-24 02:06:00,29.1,23.4,30.02,North,0,2.4,2.6,79,0.00,CLR,,0.00,WeatherDisplay:10.37,2013-03-24 07:06:00,
2013-03-24 02:11:00,28.9,23.2,30.01,NNE,22,8.1,8.1,79,0.00,CLR,,0.00,WeatherDisplay:10.37,2013-03-24 07:11:00,
2013-03-24 02:16:00,28.9,23.2,30.01,NNE,22,5.8,5.8,79,0.00,CLR,,0.00,WeatherDisplay:10.37,2013-03-24 07:16:00,
2013-03-24 02:21:00,28.8,23.1,30.01,NNE,22,7.0,7.4,79,0.00,CLR,,0.00,WeatherDisplay:10.37,2013-03-24 07:21:00,
2013-03-24 02:26:00,28.8,23.1,30.01,North,0,6.9,6.9,79,0.00,CLR,,0.00,WeatherDisplay:10.37,2013-03-24 07:26:00,
2013-03-24 02:31:00,28.8,22.8,30.01,NNE,22,6.9,6.9,78,0.00,CLR,,0.00,WeatherDisplay:10.37,2013-03-24 07:31:00,
2013-03-24 02:36:00,28.6,22.6,30.01,NNE,22,6.2,6.7,78,0.00,CLR,,0.00,WeatherDisplay:10.37,2013-03-24 07:36:00,
2013-03-24 02:41:00,28.6,22.6,30.01,NNE,22,8.1,8.4,78,0.00,CLR,,0.00,WeatherDisplay:10.37,2013-03-24 07:41:00,
2013-03-24 02:46:00,28.6,22.3,30.01,NNE,22,7.0,7.5,77,0.00,CLR,,0.00,WeatherDisplay:10.37,2013-03-24 07:46:00,
2013-03-24 02:51:00,28.4,22.1,30.01,North,0,8.1,8.1,77,0.00,CLR,,0.00,WeatherDisplay:10.37,2013-03-24 07:51:00,
2013-03-24 02:56:00,28.4,22.1,30.01,NNE,22,8.1,8.1,77,0.00,CLR,,0.00,WeatherDisplay:10.37,2013-03-24 07:56:00,
2013-03-24 03:01:00,28.4,21.8,30.01,NNE,22,8.1,8.1,76,0.00,CLR,,0.00,WeatherDisplay:10.37,2013-03-24 08:01:00,
2013-03-24 03:06:00,28.0,21.4,30.00,North,0,6.9,6.9,76,0.00,CLR,,0.00,WeatherDisplay:10.37,2013-03-24 08:06:00,
2013-03-24 03:11:00,27.9,21.3,30.00,North,0,6.9,7.5,76,0.00,CLR,,0.00,WeatherDisplay:10.37,2013-03-24 08:11:00,
2013-03-24 03:16:00,27.7,21.1,30.00,North,0,5.8,6.7,76,0.00,CLR,,0.00,WeatherDisplay:10.37,2013-03-24 08:16:00,
2013-03-24 03:21:00,27.5,20.9,30.00,NNE,22,6.9,7.0,76,0.00,CLR,,0.00,WeatherDisplay:10.37,2013-03-24 08:21:00,
2013-03-24 03:26:00,27.5,21.2,29.99,NNE,22,4.6,4.6,77,0.00,CLR,,0.00,WeatherDisplay:10.37,2013-03-24 08:26:00,
2013-03-24 03:31:00,27.1,20.9,29.99,NNE,22,6.9,7.8,77,0.00,CLR,,0.00,WeatherDisplay:10.37,2013-03-24 08:31:00,
2013-03-24 03:36:00,27.0,21.0,29.99,North,0,6.9,6.9,78,0.00,CLR,,0.00,WeatherDisplay:10.37,2013-03-24 08:36:00,
2013-03-24 03:41:00,26.8,20.8,29.99,NNE,22,6.9,7.8,78,0.00,CLR,,0.00,WeatherDisplay:10.37,2013-03-24 08:41:00,
2013-03-24 03:46:00,26.4,20.8,29.99,North,0,6.9,7.0,79,0.00,CLR,,0.00,WeatherDisplay:10.37,2013-03-24 08:46:00,
2013-03-24 03:51:00,26.4,20.8,29.99,NNE,22,4.9,5.0,79,0.00,CLR,,0.00,WeatherDisplay:10.37,2013-03-24 08:51:00,
2013-03-24 03:56:00,26.2,20.6,29.97,North,0,6.2,6.7,79,0.00,CLR,,0.00,WeatherDisplay:10.37,2013-03-24 08:56:00,
2013-03-24 04:01:00,26.2,20.9,29.97,North,0,7.6,7.6,80,0.00,CLR,,0.00,WeatherDisplay:10.37,2013-03-24 09:01:00,
2013-03-24 04:06:00,26.1,20.7,29.97,North,0,5.8,6.1,80,0.00,CLR,,0.00,WeatherDisplay:10.37,2013-03-24 09:06:00,
2013-03-24 04:11:00,26.1,20.7,29.97,North,0,3.5,3.8,80,0.00,CLR,,0.00,WeatherDisplay:10.37,2013-03-24 09:11:00,
2013-03-24 04:16:00,26.1,20.7,29.97,NNE,22,6.9,6.9,80,0.00,CLR,,0.00,WeatherDisplay:10.37,2013-03-24 09:16:00,
2013-03-24 04:21:00,26.1,20.7,29.97,NNE,22,7.3,7.8,80,0.00,CLR,,0.00,WeatherDisplay:10.37,2013-03-24 09:21:00,
2013-03-24 04:26:00,26.1,20.7,29.97,North,0,6.9,6.9,80,0.00,CLR,,0.00,WeatherDisplay:10.37,2013-03-24 09:26:00,
2013-03-24 04:31:00,26.1,20.7,29.97,North,0,6.5,6.7,80,0.00,CLR,,0.00,WeatherDisplay:10.37,2013-03-24 09:31:00,
2013-03-24 04:36:00,25.7,20.4,29.97,North,0,5.8,5.8,80,0.00,CLR,,0.00,WeatherDisplay:10.37,2013-03-24 09:36:00,
2013-03-24 04:41:00,25.9,20.6,29.97,North,0,6.2,6.7,80,0.00,CLR,,0.00,WeatherDisplay:10.37,2013-03-24 09:41:00,
2013-03-24 04:46:00,25.7,20.4,29.97,North,0,8.4,8.4,80,0.00,CLR,,0.00,WeatherDisplay:10.37,2013-03-24 09:46:00,
2013-03-24 04:51:00,25.9,20.6,29.97,North,0,6.9,6.9,80,0.00,CLR,,0.00,WeatherDisplay:10.37,2013-03-24 09:51:00,
2013-03-24 04:56:00,26.1,20.7,29.97,North,0,4.6,4.6,80,0.00,CLR,,0.00,WeatherDisplay:10.37,2013-03-24 09:56:00,
2013-03-24 05:01:00,25.9,20.6,29.96,North,0,5.8,6.1,80,0.00,CLR,,0.00,WeatherDisplay:10.37,2013-03-24 10:01:00,
2013-03-24 05:06:00,26.1,20.7,29.96,NNE,22,6.9,7.2,80,0.00,CLR,,0.00,WeatherDisplay:10.37,2013-03-24 10:06:00,
2013-03-24 05:11:00,25.9,20.6,29.96,North,0,8.4,9.0,80,0.00,CLR,,0.00,WeatherDisplay:10.37,2013-03-24 10:11:00,
2013-03-24 05:16:00,25.9,20.6,29.96,North,0,8.1,8.4,80,0.00,CLR,,0.00,WeatherDisplay:10.37,2013-03-24 10:16:00,
2013-03-24 05:21:00,25.9,20.6,29.96,NNE,22,8.1,8.7,80,0.00,CLR,,0.00,WeatherDisplay:10.37,2013-03-24 10:21:00,
2013-03-24 05:26:00,25.7,20.4,29.96,North,0,7.3,7.8,80,0.00,CLR,,0.00,WeatherDisplay:10.37,2013-03-24 10:26:00,
2013-03-24 05:31:00,25.5,19.9,29.96,North,0,6.5,6.5,79,0.00,CLR,,0.00,WeatherDisplay:10.37,2013-03-24 10:31:00,
2013-03-24 05:36:00,25.5,20.2,29.96,North,0,9.2,9.2,80,0.00,CLR,,0.00,WeatherDisplay:10.37,2013-03-24 10:36:00,
2013-03-24 05:41:00,25.3,20.0,29.96,North,0,7.0,7.5,80,0.00,CLR,,0.00,WeatherDisplay:10.37,2013-03-24 10:41:00,
2013-03-24 05:46:00,25.3,20.0,29.96,North,0,6.9,6.9,80,0.00,CLR,,0.00,WeatherDisplay:10.37,2013-03-24 10:46:00,
2013-03-24 05:51:00,25.3,20.0,29.96,North,0,7.3,7.8,80,0.00,CLR,,0.00,WeatherDisplay:10.37,2013-03-24 10:51:00,
2013-03-24 05:56:00,25.2,19.9,29.96,NNE,22,4.6,4.6,80,0.00,CLR,,0.00,WeatherDisplay:10.37,2013-03-24 10:56:00,
2013-03-24 06:01:00,25.2,19.9,29.96,North,0,5.9,6.3,80,0.00,CLR,,0.00,WeatherDisplay:10.37,2013-03-24 11:01:00,
2013-03-24 06:06:00,25.0,19.7,29.96,North,0,5.8,5.8,80,0.00,CLR,,0.00,WeatherDisplay:10.37,2013-03-24 11:06:00,
2013-03-24 06:11:00,25.0,20.0,29.97,North,0,5.8,5.8,81,0.00,CLR,,0.00,WeatherDisplay:10.37,2013-03-24 11:11:00,
2013-03-24 06:16:00,25.0,20.0,29.96,North,0,6.9,6.9,81,0.00,CLR,,0.00,WeatherDisplay:10.37,2013-03-24 11:16:00,
2013-03-24 06:21:00,24.8,19.8,29.97,North,0,6.9,7.2,81,0.00,CLR,,0.00,WeatherDisplay:10.37,2013-03-24 11:21:00,
2013-03-24 06:26:00,25.0,20.0,29.97,North,0,4.6,4.6,81,0.00,CLR,,0.00,WeatherDisplay:10.37,2013-03-24 11:26:00,
2013-03-24 06:31:00,25.0,20.0,29.96,North,0,8.1,8.1,81,0.00,CLR,,0.00,WeatherDisplay:10.37,2013-03-24 11:31:00,
2013-03-24 06:36:00,24.8,20.1,29.96,North,0,5.8,6.1,82,0.00,CLR,,0.00,WeatherDisplay:10.37,2013-03-24 11:36:00,
2013-03-24 06:41:00,24.8,20.1,29.96,North,0,8.1,8.1,82,0.00,CLR,,0.00,WeatherDisplay:10.37,2013-03-24 11:41:00,
2013-03-24 06:46:00,24.8,20.1,29.95,North,0,9.5,10.0,82,0.00,CLR,,0.00,WeatherDisplay:10.37,2013-03-24 11:46:00,
2013-03-24 06:51:00,24.6,19.9,29.95,North,0,6.9,7.2,82,0.00,CLR,,0.00,WeatherDisplay:10.37,2013-03-24 11:51:00,
2013-03-24 06:56:00,24.6,19.9,29.95,NNE,22,6.2,6.2,82,0.00,CLR,,0.00,WeatherDisplay:10.37,2013-03-24 11:56:00,
2013-03-24 07:01:00,24.8,20.4,29.95,North,0,7.3,7.7,83,0.00,CLR,,0.00,WeatherDisplay:10.37,2013-03-24 12:01:00,
2013-03-24 07:06:00,24.8,20.4,29.95,NNE,22,8.1,8.7,83,0.00,CLR,,0.00,WeatherDisplay:10.37,2013-03-24 12:06:00,
2013-03-24 07:11:00,24.8,20.4,29.95,North,0,6.8,6.8,83,0.00,CLR,,0.00,WeatherDisplay:10.37,2013-03-24 12:11:00,
2013-03-24 07:16:00,24.6,20.2,29.95,North,0,6.9,6.9,83,0.00,CLR,,0.00,WeatherDisplay:10.37,2013-03-24 12:16:00,
2013-03-24 07:21:00,24.6,20.2,29.95,North,0,3.5,3.8,83,0.00,CLR,,0.00,WeatherDisplay:10.37,2013-03-24 12:21:00,
2013-03-24 07:26:00,24.6,20.2,29.95,North,0,6.5,6.5,83,0.00,CLR,,0.00,WeatherDisplay:10.37,2013-03-24 12:26:00,
2013-03-24 07:31:00,24.4,20.3,29.95,North,0,6.9,7.2,84,0.00,CLR,,0.00,WeatherDisplay:10.37,2013-03-24 12:31:00,
2013-03-24 07:36:00,24.4,20.3,29.96,North,0,4.6,4.6,84,0.00,CLR,,0.00,WeatherDisplay:10.37,2013-03-24 12:36:00,
2013-03-24 07:41:00,24.4,20.3,29.96,North,0,4.6,4.6,84,0.00,CLR,,0.00,WeatherDisplay:10.37,2013-03-24 12:41:00,
2013-03-24 07:46:00,24.4,20.3,29.96,North,0,2.3,2.3,84,0.00,CLR,,0.00,WeatherDisplay:10.37,2013-03-24 12:46:00,
2013-03-24 07:51:00,24.4,20.3,29.96,North,0,0.0,0.0,84,0.00,CLR,,0.00,WeatherDisplay:10.37,2013-03-24 12:51:00,
2013-03-24 07:56:00,24.6,20.5,29.96,North,0,8.1,8.7,84,0.00,CLR,,0.00,WeatherDisplay:10.37,2013-03-24 12:56:00,
2013-03-24 08:01:00,24.4,20.3,29.95,North,0,6.9,7.2,84,0.00,CLR,,0.00,WeatherDisplay:10.37,2013-03-24 13:01:00,
2013-03-24 08:06:00,24.6,20.8,29.95,North,0,8.1,8.1,85,0.00,CLR,,0.00,WeatherDisplay:10.37,2013-03-24 13:06:00,
2013-03-24 08:11:00,24.6,20.8,29.95,North,0,2.3,2.3,85,0.00,CLR,,0.00,WeatherDisplay:10.37,2013-03-24 13:11:00,
2013-03-24 08:16:00,24.6,20.8,29.95,North,0,6.9,7.4,85,0.00,CLR,,0.00,WeatherDisplay:10.37,2013-03-24 13:16:00,
2013-03-24 08:21:00,24.6,20.8,29.95,North,0,8.1,8.1,85,0.00,CLR,,0.00,WeatherDisplay:10.37,2013-03-24 13:21:00,
2013-03-24 08:26:00,24.6,20.8,29.95,North,0,8.1,8.1,85,0.00,CLR,,0.00,WeatherDisplay:10.37,2013-03-24 13:26:00,
2013-03-24 08:31:00,24.6,20.8,29.95,North,0,6.8,6.8,85,0.00,CLR,,0.00,WeatherDisplay:10.37,2013-03-24 13:31:00,
2013-03-24 08:37:00,25.0,21.1,29.95,North,0,8.1,8.1,85,0.00,CLR,,0.00,WeatherDisplay:10.37,2013-03-24 13:37:00,
2013-03-24 08:42:00,25.0,21.1,29.95,North,0,8.1,8.7,85,0.00,CLR,,0.00,WeatherDisplay:10.37,2013-03-24 13:42:00,
2013-03-24 08:47:00,25.0,21.1,29.95,NNE,22,7.0,7.5,85,0.00,CLR,,0.00,WeatherDisplay:10.37,2013-03-24 13:47:00,
2013-03-24 08:52:00,25.2,21.3,29.94,North,0,6.9,7.5,85,0.00,CLR,,0.00,WeatherDisplay:10.37,2013-03-24 13:52:00,
2013-03-24 08:57:00,25.2,21.3,29.94,North,0,8.1,8.1,85,0.00,CLR,,0.00,WeatherDisplay:10.37,2013-03-24 13:57:00,
2013-03-24 09:02:00,25.3,21.5,29.94,NNE,22,8.1,8.7,85,0.00,CLR,,0.00,WeatherDisplay:10.37,2013-03-24 14:02:00,
2013-03-24 09:07:00,25.5,21.6,29.95,North,0,5.1,5.5,85,0.00,CLR,,0.00,WeatherDisplay:10.37,2013-03-24 14:07:00,
2013-03-24 09:12:00,25.5,21.6,29.95,North,0,7.3,7.3,85,0.00,CLR,,0.00,WeatherDisplay:10.37,2013-03-24 14:12:00,
2013-03-24 09:17:00,25.7,21.5,29.95,North,0,6.9,6.9,84,0.00,CLR,,0.00,WeatherDisplay:10.37,2013-03-24 14:17:00,
2013-03-24 09:22:00,25.9,21.7,29.95,North,0,4.6,5.2,84,0.00,CLR,,0.00,WeatherDisplay:10.37,2013-03-24 14:22:00,
2013-03-24 09:27:00,26.1,21.9,29.95,North,0,5.8,5.8,84,0.00,CLR,,0.00,WeatherDisplay:10.37,2013-03-24 14:27:00,
2013-03-24 09:32:00,26.2,22.1,29.95,North,0,6.9,6.9,84,0.00,CLR,,0.00,WeatherDisplay:10.37,2013-03-24 14:32:00,
2013-03-24 09:37:00,26.2,22.1,29.95,North,0,4.6,4.6,84,0.00,CLR,,0.00,WeatherDisplay:10.37,2013-03-24 14:37:00,
2013-03-24 09:43:00,26.6,22.4,29.95,North,0,8.1,8.5,84,0.00,CLR,,0.00,WeatherDisplay:10.37,2013-03-24 14:43:00,
2013-03-24 09:48:00,26.6,22.4,29.95,North,0,4.9,5.2,84,0.00,CLR,,0.00,WeatherDisplay:10.37,2013-03-24 14:48:00,
2013-03-24 09:53:00,26.6,22.4,29.95,North,0,8.1,8.1,84,0.00,CLR,,0.00,WeatherDisplay:10.37,2013-03-24 14:53:00,
2013-03-24 09:58:00,26.4,22.0,29.95,North,0,8.1,8.1,83,0.00,CLR,,0.00,WeatherDisplay:10.37,2013-03-24 14:58:00,
2013-03-24 10:03:00,26.6,22.1,29.95,North,0,6.9,7.2,83,0.00,CLR,,0.00,WeatherDisplay:10.37,2013-03-24 15:03:00,
2013-03-24 10:08:00,26.8,22.3,29.95,North,0,5.8,5.8,83,0.00,CLR,,0.00,WeatherDisplay:10.37,2013-03-24 15:08:00,
2013-03-24 10:13:00,27.0,22.5,29.95,North,0,7.0,7.5,83,0.00,CLR,,0.00,WeatherDisplay:10.37,2013-03-24 15:13:00,
2013-03-24 10:18:00,27.0,22.5,29.95,NNE,22,7.0,7.5,83,0.00,CLR,,0.00,WeatherDisplay:10.37,2013-03-24 15:18:00,
2013-03-24 10:23:00,27.1,22.7,29.95,North,0,8.1,8.1,83,0.00,CLR,,0.00,WeatherDisplay:10.37,2013-03-24 15:23:00,
2013-03-24 10:28:00,27.3,22.8,29.95,North,0,8.1,8.4,83,0.00,CLR,,0.00,WeatherDisplay:10.37,2013-03-24 15:28:00,
2013-03-24 10:33:00,27.3,22.8,29.95,North,0,8.1,8.4,83,0.00,CLR,,0.00,WeatherDisplay:10.37,2013-03-24 15:33:00,
2013-03-24 10:38:00,27.3,22.8,29.95,North,0,6.9,6.9,83,0.00,CLR,,0.00,WeatherDisplay:10.37,2013-03-24 15:38:00,
2013-03-24 10:43:00,27.5,23.0,29.95,North,0,6.2,6.7,83,0.00,CLR,,0.00,WeatherDisplay:10.37,2013-03-24 15:43:00,
2013-03-24 10:48:00,27.5,23.0,29.95,North,0,8.1,8.4,83,0.00,CLR,,0.00,WeatherDisplay:10.37,2013-03-24 15:48:00,
2013-03-24 10:53:00,27.7,23.2,29.95,North,0,8.1,8.1,83,0.00,CLR,,0.00,WeatherDisplay:10.37,2013-03-24 15:53:00,
2013-03-24 10:58:00,27.5,23.0,29.94,North,0,8.1,8.1,83,0.00,CLR,,0.00,WeatherDisplay:10.37,2013-03-24 15:58:00,
2013-03-24 11:03:00,27.7,23.2,29.95,NNE,22,8.4,9.0,83,0.00,CLR,,0.00,WeatherDisplay:10.37,2013-03-24 16:03:00,
2013-03-24 11:08:00,27.9,23.4,29.95,North,0,7.8,7.8,83,0.00,CLR,,0.00,WeatherDisplay:10.37,2013-03-24 16:08:00,
2013-03-24 11:13:00,27.9,23.4,29.95,North,0,8.1,8.1,83,0.00,CLR,,0.00,WeatherDisplay:10.37,2013-03-24 16:13:00,
2013-03-24 11:18:00,27.9,23.1,29.95,North,0,8.1,8.1,82,0.00,CLR,,0.00,WeatherDisplay:10.37,2013-03-24 16:18:00,
2013-03-24 11:23:00,28.0,23.3,29.94,North,0,8.1,8.1,82,0.00,CLR,,0.00,WeatherDisplay:10.37,2013-03-24 16:23:00,
2013-03-24 11:28:00,28.0,23.5,29.95,North,0,6.9,6.9,83,0.00,CLR,,0.00,WeatherDisplay:10.37,2013-03-24 16:28:00,
2013-03-24 11:33:00,28.2,23.7,29.94,North,0,5.8,6.4,83,0.00,CLR,,0.00,WeatherDisplay:10.37,2013-03-24 16:33:00,
2013-03-24 11:38:00,28.2,23.4,29.94,North,0,8.1,8.3,82,0.00,CLR,,0.00,WeatherDisplay:10.37,2013-03-24 16:38:00,
2013-03-24 11:43:00,28.4,23.6,29.94,North,0,5.8,6.1,82,0.00,CLR,,0.00,WeatherDisplay:10.37,2013-03-24 16:43:00,
2013-03-24 11:48:00,28.6,23.8,29.94,North,0,7.8,7.8,82,0.00,CLR,,0.00,WeatherDisplay:10.37,2013-03-24 16:48:00,
2013-03-24 11:53:00,28.2,23.4,29.94,North,0,8.7,8.7,82,0.00,CLR,,0.00,WeatherDisplay:10.37,2013-03-24 16:53:00,
2013-03-24 11:58:00,28.4,23.6,29.94,North,0,6.9,7.2,82,0.00,CLR,,0.00,WeatherDisplay:10.37,2013-03-24 16:58:00,
2013-03-24 12:03:00,28.0,23.3,29.94,North,0,8.1,8.3,82,0.00,CLR,,0.00,WeatherDisplay:10.37,2013-03-24 17:03:00,
2013-03-24 12:08:00,28.2,23.4,29.93,North,0,10.5,10.7,82,0.00,CLR,,0.00,WeatherDisplay:10.37,2013-03-24 17:08:00,
2013-03-24 12:13:00,28.6,23.8,29.93,NNE,22,8.1,8.1,82,0.00,CLR,,0.00,WeatherDisplay:10.37,2013-03-24 17:13:00,
2013-03-24 12:18:00,28.6,23.8,29.93,North,0,8.1,8.1,82,0.00,CLR,,0.00,WeatherDisplay:10.37,2013-03-24 17:18:00,
2013-03-24 12:23:00,28.6,23.8,29.93,North,0,8.1,8.4,82,0.00,CLR,,0.00,WeatherDisplay:10.37,2013-03-24 17:23:00,
2013-03-24 12:28:00,28.6,23.8,29.93,North,0,10.4,10.4,82,0.00,CLR,,0.00,WeatherDisplay:10.37,2013-03-24 17:28:00,
2013-03-24 12:33:00,28.8,24.0,29.93,North,0,8.9,8.9,82,0.00,CLR,,0.00,WeatherDisplay:10.37,2013-03-24 17:33:00,
2013-03-24 12:38:00,29.1,24.3,29.93,North,0,9.2,9.5,82,0.00,CLR,,0.00,WeatherDisplay:10.37,2013-03-24 17:38:00,
2013-03-24 12:43:00,29.3,24.5,29.93,North,0,9.5,10.1,82,0.00,CLR,,0.00,WeatherDisplay:10.37,2013-03-24 17:43:00,
2013-03-24 12:48:00,29.1,24.3,29.92,North,0,8.1,8.5,82,0.00,CLR,,0.00,WeatherDisplay:10.37,2013-03-24 17:48:00,
2013-03-24 12:53:00,29.1,24.0,29.92,North,0,8.1,8.7,81,0.00,CLR,,0.00,WeatherDisplay:10.37,2013-03-24 17:53:00,
2013-03-24 12:58:00,29.3,24.2,29.92,North,0,10.8,11.6,81,0.00,CLR,,0.00,WeatherDisplay:10.37,2013-03-24 17:58:00,
2013-03-24 13:03:00,29.1,24.0,29.92,North,0,9.7,9.7,81,0.00,CLR,,0.00,WeatherDisplay:10.37,2013-03-24 18:03:00,
2013-03-24 13:08:00,29.1,24.0,29.92,North,0,7.3,7.8,81,0.00,CLR,,0.00,WeatherDisplay:10.37,2013-03-24 18:08:00,
2013-03-24 13:14:00,29.3,24.2,29.92,North,0,8.4,8.4,81,0.00,CLR,,0.00,WeatherDisplay:10.37,2013-03-24 18:14:00,
2013-03-24 13:19:00,29.5,24.4,29.92,North,0,9.7,10.4,81,0.00,CLR,,0.00,WeatherDisplay:10.37,2013-03-24 18:19:00,
2013-03-24 13:24:00,29.7,24.5,29.92,North,0,8.1,8.4,81,0.00,CLR,,0.00,WeatherDisplay:10.37,2013-03-24 18:24:00,
2013-03-24 13:29:00,29.7,24.5,29.92,North,0,8.1,8.7,81,0.00,CLR,,0.00,WeatherDisplay:10.37,2013-03-24 18:29:00,
2013-03-24 13:34:00,29.7,24.5,29.91,NNE,22,9.2,9.5,81,0.00,CLR,,0.00,WeatherDisplay:10.37,2013-03-24 18:34:00,
2013-03-24 13:39:00,29.7,24.2,29.92,North,0,6.9,6.9,80,0.00,CLR,,0.00,WeatherDisplay:10.37,2013-03-24 18:39:00,
2013-03-24 13:44:00,29.8,24.4,29.92,North,0,7.8,8.1,80,0.00,CLR,,0.00,WeatherDisplay:10.37,2013-03-24 18:44:00,
2013-03-24 13:49:00,29.7,24.2,29.92,North,0,8.1,8.1,80,0.00,CLR,,0.00,WeatherDisplay:10.37,2013-03-24 18:49:00,
2013-03-24 13:54:00,29.7,24.2,29.91,North,0,6.9,6.9,80,0.00,CLR,,0.00,WeatherDisplay:10.37,2013-03-24 18:54:00,
2013-03-24 13:59:00,29.8,24.4,29.91,North,0,9.2,9.2,80,0.00,CLR,,0.00,WeatherDisplay:10.37,2013-03-24 18:59:00,
2013-03-24 14:04:00,29.8,24.4,29.92,North,0,6.9,7.5,80,0.00,CLR,,0.00,WeatherDisplay:10.37,2013-03-24 19:04:00,
2013-03-24 14:09:00,29.7,23.9,29.92,NNE,22,7.6,7.6,79,0.00,CLR,,0.00,WeatherDisplay:10.37,2013-03-24 19:09:00,
2013-03-24 14:14:00,29.5,23.8,29.92,North,0,7.3,7.7,79,0.00,CLR,,0.00,WeatherDisplay:10.37,2013-03-24 19:14:00,
2013-03-24 14:19:00,29.3,23.6,29.91,North,0,8.1,8.1,79,0.00,CLR,,0.00,WeatherDisplay:10.37,2013-03-24 19:19:00,
2013-03-24 14:24:00,29.3,23.6,29.91,North,0,9.2,9.3,79,0.00,CLR,,0.00,WeatherDisplay:10.37,2013-03-24 19:24:00,
2013-03-24 14:29:00,29.3,23.6,29.91,North,0,10.4,10.4,79,0.00,CLR,,0.00,WeatherDisplay:10.37,2013-03-24 19:29:00,
2013-03-24 14:34:00,29.3,23.9,29.91,North,0,9.2,9.3,80,0.00,CLR,,0.00,WeatherDisplay:10.37,2013-03-24 19:34:00,
2013-03-24 14:39:00,29.5,24.1,29.91,North,0,11.5,12.2,80,0.00,CLR,,0.00,WeatherDisplay:10.37,2013-03-24 19:39:00,
2013-03-24 14:44:00,29.5,24.1,29.91,North,0,8.4,9.0,80,0.00,CLR,,0.00,WeatherDisplay:10.37,2013-03-24 19:44:00,
2013-03-24 14:49:00,29.7,24.2,29.91,North,0,8.1,8.1,80,0.00,CLR,,0.00,WeatherDisplay:10.37,2013-03-24 19:49:00,
2013-03-24 14:54:00,29.5,24.1,29.91,North,0,8.1,8.1,80,0.00,CLR,,0.00,WeatherDisplay:10.37,2013-03-24 19:54:00,
2013-03-24 14:59:00,29.5,24.1,29.90,NE,45,8.1,8.1,80,0.00,CLR,,0.00,WeatherDisplay:10.37,2013-03-24 19:59:00,
2013-03-24 15:04:00,29.7,24.2,29.90,North,0,7.0,7.5,80,0.00,CLR,,0.00,WeatherDisplay:10.37,2013-03-24 20:04:00,
2013-03-24 15:09:00,29.7,24.5,29.90,North,0,8.1,8.1,81,0.00,CLR,,0.00,WeatherDisplay:10.37,2013-03-24 20:09:00,
2013-03-24 15:14:00,29.8,24.7,29.90,North,0,6.9,6.9,81,0.00,CLR,,0.00,WeatherDisplay:10.37,2013-03-24 20:14:00,
2013-03-24 15:19:00,29.8,24.7,29.90,North,0,8.1,8.1,81,0.00,CLR,,0.00,WeatherDisplay:10.37,2013-03-24 20:19:00,
2013-03-24 15:24:00,30.0,25.2,29.91,North,0,6.2,6.2,82,0.00,CLR,,0.00,WeatherDisplay:10.37,2013-03-24 20:24:00,
2013-03-24 15:29:00,30.0,25.2,29.90,North,0,3.5,3.5,82,0.00,CLR,,0.00,WeatherDisplay:10.37,2013-03-24 20:29:00,
2013-03-24 15:34:00,30.0,25.5,29.91,North,0,6.9,7.2,83,0.00,CLR,,0.00,WeatherDisplay:10.37,2013-03-24 20:34:00,
2013-03-24 15:39:00,30.4,25.8,29.90,North,0,8.4,8.4,83,0.00,CLR,,0.00,WeatherDisplay:10.37,2013-03-24 20:39:00,
2013-03-24 15:44:00,30.4,25.8,29.90,North,0,8.1,8.1,83,0.00,CLR,,0.00,WeatherDisplay:10.37,2013-03-24 20:44:00,
2013-03-24 15:49:00,30.4,25.8,29.90,North,0,9.2,9.5,83,0.00,CLR,,0.00,WeatherDisplay:10.37,2013-03-24 20:49:00,
2013-03-24 15:54:00,30.4,25.8,29.90,North,0,4.6,4.6,83,0.00,CLR,,0.00,WeatherDisplay:10.37,2013-03-24 20:54:00,
2013-03-24 15:59:00,30.7,26.5,29.91,North,0,7.0,7.5,84,0.00,CLR,,0.00,WeatherDisplay:10.37,2013-03-24 20:59:00,
2013-03-24 16:04:00,30.9,26.7,29.91,North,0,8.1,8.1,84,0.00,CLR,,0.00,WeatherDisplay:10.37,2013-03-24 21:04:00,
2013-03-24 16:09:00,30.9,26.7,29.90,North,0,5.9,5.9,84,0.00,CLR,,0.00,WeatherDisplay:10.37,2013-03-24 21:09:00,
2013-03-24 16:14:00,30.9,26.7,29.90,North,0,7.0,7.5,84,0.00,CLR,,0.00,WeatherDisplay:10.37,2013-03-24 21:14:00,
2013-03-24 16:19:00,31.1,26.8,29.90,North,0,6.9,6.9,84,0.00,CLR,,0.00,WeatherDisplay:10.37,2013-03-24 21:19:00,
2013-03-24 16:24:00,31.3,27.0,29.90,North,0,5.8,6.3,84,0.00,CLR,,0.00,WeatherDisplay:10.37,2013-03-24 21:24:00,
2013-03-24 16:29:00,31.1,26.8,29.90,North,0,4.6,5.5,84,0.00,CLR,,0.00,WeatherDisplay:10.37,2013-03-24 21:29:00,
2013-03-24 16:34:00,31.3,27.0,29.90,North,0,4.9,5.4,84,0.00,CLR,,0.00,WeatherDisplay:10.37,2013-03-24 21:34:00,
2013-03-24 16:39:00,31.5,27.2,29.91,North,0,6.9,6.9,84,0.00,CLR,,0.00,WeatherDisplay:10.37,2013-03-24 21:39:00,
2013-03-24 16:44:00,31.5,27.2,29.91,North,0,1.1,1.1,84,0.00,CLR,,0.00,WeatherDisplay:10.37,2013-03-24 21:44:00,
2013-03-24 16:49:00,31.3,27.0,29.91,NNW,338,0.0,0.0,84,0.00,CLR,,0.00,WeatherDisplay:10.37,2013-03-24 21:49:00,
2013-03-24 16:54:00,31.1,26.8,29.91,NNW,338,2.3,2.3,84,0.00,CLR,,0.00,WeatherDisplay:10.37,2013-03-24 21:54:00,
2013-03-24 16:59:00,31.1,27.1,29.91,NNW,338,4.6,4.6,85,0.00,CLR,,0.00,WeatherDisplay:10.37,2013-03-24 21:59:00,
2013-03-24 17:04:00,31.1,27.1,29.91,NNW,338,2.3,2.3,85,0.00,CLR,,0.00,WeatherDisplay:10.37,2013-03-24 22:04:00,
2013-03-24 17:09:00,31.1,27.1,29.91,North,0,4.6,0.0,85,0.00,CLR,,0.00,WeatherDisplay:10.37,2013-03-24 22:09:00,
2013-03-24 17:14:00,31.1,27.1,29.91,North,0,0.0,0.0,85,0.00,CLR,,0.00,WeatherDisplay:10.37,2013-03-24 22:14:00,
2013-03-24 17:19:00,30.9,26.9,29.91,NNW,338,8.1,8.1,85,0.00,CLR,,0.00,WeatherDisplay:10.37,2013-03-24 22:19:00,
2013-03-24 17:24:00,30.9,27.2,29.91,North,0,3.5,3.5,86,0.00,CLR,,0.00,WeatherDisplay:10.37,2013-03-24 22:24:00,
2013-03-24 17:29:00,30.9,27.2,29.92,NNW,338,6.2,6.7,86,0.00,CLR,,0.00,WeatherDisplay:10.37,2013-03-24 22:29:00,
2013-03-24 17:34:00,30.9,27.2,29.92,North,0,1.1,1.1,86,0.00,CLR,,0.00,WeatherDisplay:10.37,2013-03-24 22:34:00,
2013-03-24 17:39:00,30.9,27.2,29.92,North,0,5.8,5.8,86,0.00,CLR,,0.00,WeatherDisplay:10.37,2013-03-24 22:39:00,
2013-03-24 17:44:00,30.7,27.0,29.92,North,0,1.4,1.4,86,0.00,CLR,,0.00,WeatherDisplay:10.37,2013-03-24 22:44:00,
2013-03-24 17:49:00,30.6,26.9,29.92,North,0,0.0,0.0,86,0.00,CLR,,0.00,WeatherDisplay:10.37,2013-03-24 22:49:00,
2013-03-24 17:54:00,30.6,26.9,29.92,NNW,338,9.2,9.5,86,0.00,CLR,,0.00,WeatherDisplay:10.37,2013-03-24 22:54:00,
2013-03-24 17:59:00,30.4,26.7,29.92,NNW,338,1.6,1.6,86,0.00,CLR,,0.00,WeatherDisplay:10.37,2013-03-24 22:59:00,
2013-03-24 18:04:00,30.4,27.0,29.92,North,0,6.9,6.9,87,0.00,CLR,,0.00,WeatherDisplay:10.37,2013-03-24 23:04:00,
2013-03-24 18:09:00,30.4,27.0,29.92,North,0,0.0,0.0,87,0.00,CLR,,0.00,WeatherDisplay:10.37,2013-03-24 23:09:00,
2013-03-24 18:14:00,30.0,26.6,29.92,NNW,338,7.6,7.6,87,0.00,CLR,,0.00,WeatherDisplay:10.37,2013-03-24 23:14:00,
2013-03-24 18:19:00,29.8,26.4,29.92,NNW,338,8.4,8.6,87,0.00,CLR,,0.00,WeatherDisplay:10.37,2013-03-24 23:19:00,
2013-03-24 18:24:00,30.0,26.9,29.92,NNW,338,0.0,0.0,88,0.00,CLR,,0.00,WeatherDisplay:10.37,2013-03-24 23:24:00,
2013-03-24 18:29:00,29.8,26.7,29.92,NNW,338,0.0,0.0,88,0.00,CLR,,0.00,WeatherDisplay:10.37,2013-03-24 23:29:00,
2013-03-24 18:34:00,29.8,26.7,29.92,NNW,338,8.1,8.1,88,0.00,CLR,,0.00,WeatherDisplay:10.37,2013-03-24 23:34:00,
2013-03-24 18:39:00,29.7,26.5,29.93,NNW,338,2.4,2.6,88,0.00,CLR,,0.00,WeatherDisplay:10.37,2013-03-24 23:39:00,
2013-03-24 18:44:00,29.7,26.5,29.93,North,0,1.6,1.6,88,0.00,CLR,,0.00,WeatherDisplay:10.37,2013-03-24 23:44:00,
2013-03-24 18:49:00,29.7,26.8,29.93,North,0,4.6,4.6,89,0.00,CLR,,0.00,WeatherDisplay:10.37,2013-03-24 23:49:00,
2013-03-24 18:54:00,29.7,26.8,29.93,NNW,338,0.0,0.0,89,0.00,CLR,,0.00,WeatherDisplay:10.37,2013-03-24 23:54:00,
2013-03-24 18:59:00,29.5,26.6,29.93,North,0,3.5,3.5,89,0.00,CLR,,0.00,WeatherDisplay:10.37,2013-03-24 23:59:00,
2013-03-24 19:04:00,29.5,26.6,29.93,North,0,5.8,5.8,89,0.00,CLR,,0.00,WeatherDisplay:10.37,2013-03-25 00:04:00,
2013-03-24 19:09:00,29.5,26.6,29.94,North,0,0.0,0.0,89,0.00,CLR,,0.00,WeatherDisplay:10.37,2013-03-25 00:09:00,
2013-03-24 19:14:00,29.5,26.6,29.94,North,0,1.4,1.4,89,0.00,CLR,,0.00,WeatherDisplay:10.37,2013-03-25 00:14:00,
2013-03-24 19:19:00,29.3,26.5,29.94,North,0,6.9,0.0,89,0.00,CLR,,0.00,WeatherDisplay:10.37,2013-03-25 00:19:00,
2013-03-24 19:24:00,29.3,26.7,29.94,North,0,6.9,7.2,90,0.00,CLR,,0.00,WeatherDisplay:10.37,2013-03-25 00:24:00,
2013-03-24 19:29:00,29.3,26.7,29.94,North,0,4.6,4.6,90,0.00,CLR,,0.00,WeatherDisplay:10.37,2013-03-25 00:29:00,
2013-03-24 19:34:00,29.3,26.7,29.94,North,0,4.9,5.2,90,0.00,CLR,,0.00,WeatherDisplay:10.37,2013-03-25 00:34:00,
2013-03-24 19:39:00,29.1,26.6,29.94,North,0,6.9,7.1,90,0.00,CLR,,0.00,WeatherDisplay:10.37,2013-03-25 00:39:00,
2013-03-24 19:44:00,28.9,26.4,29.95,North,0,7.0,7.3,90,0.00,CLR,,0.00,WeatherDisplay:10.37,2013-03-25 00:44:00,
2013-03-24 19:49:00,28.8,26.2,29.94,North,0,9.7,10.4,90,0.00,CLR,,0.00,WeatherDisplay:10.37,2013-03-25 00:49:00,
2013-03-24 19:54:00,28.6,26.0,29.95,North,0,3.5,3.5,90,0.00,CLR,,0.00,WeatherDisplay:10.37,2013-03-25 00:54:00,
2013-03-24 19:59:00,28.6,26.0,29.95,North,0,8.4,8.5,90,0.00,CLR,,0.00,WeatherDisplay:10.37,2013-03-25 00:59:00,
2013-03-24 20:04:00,28.6,26.0,29.95,North,0,8.1,8.1,90,0.00,CLR,,0.00,WeatherDisplay:10.37,2013-03-25 01:04:00,
2013-03-24 20:09:00,28.0,25.5,29.95,North,0,8.1,8.1,90,0.00,CLR,,0.00,WeatherDisplay:10.37,2013-03-25 01:09:00,
2013-03-24 20:14:00,28.0,25.5,29.95,North,0,6.9,7.2,90,0.00,CLR,,0.00,WeatherDisplay:10.37,2013-03-25 01:14:00,
2013-03-24 20:19:00,28.0,25.5,29.95,North,0,9.7,10.4,90,0.00,CLR,,0.00,WeatherDisplay:10.37,2013-03-25 01:19:00,
2013-03-24 20:24:00,28.0,25.2,29.95,North,0,4.6,4.6,89,0.00,CLR,,0.00,WeatherDisplay:10.37,2013-03-25 01:24:00,
2013-03-24 20:29:00,27.9,25.0,29.95,North,0,1.1,1.1,89,0.00,CLR,,0.00,WeatherDisplay:10.37,2013-03-25 01:29:00,
2013-03-24 20:34:00,27.9,25.0,29.96,North,0,7.0,7.5,89,0.00,CLR,,0.00,WeatherDisplay:10.37,2013-03-25 01:34:00,
2013-03-24 20:39:00,27.9,25.0,29.96,North,0,7.3,7.3,89,0.00,CLR,,0.00,WeatherDisplay:10.37,2013-03-25 01:39:00,
2013-03-24 20:44:00,27.9,25.0,29.96,North,0,8.1,0.0,89,0.00,CLR,,0.00,WeatherDisplay:10.37,2013-03-25 01:44:00,
2013-03-24 20:49:00,27.9,25.0,29.95,NNW,338,0.0,0.0,89,0.00,CLR,,0.00,WeatherDisplay:10.37,2013-03-25 01:49:00,
2013-03-24 20:54:00,27.9,25.0,29.96,NNW,338,1.1,1.2,89,0.00,CLR,,0.00,WeatherDisplay:10.37,2013-03-25 01:54:00,
2013-03-24 20:59:00,27.9,25.0,29.96,North,0,3.8,4.1,89,0.00,CLR,,0.00,WeatherDisplay:10.37,2013-03-25 01:59:00,
2013-03-24 21:04:00,27.7,24.9,29.95,North,0,4.9,5.2,89,0.00,CLR,,0.00,WeatherDisplay:10.37,2013-03-25 02:04:00,
2013-03-24 21:09:00,27.7,24.9,29.96,North,0,0.0,0.0,89,0.00,CLR,,0.00,WeatherDisplay:10.37,2013-03-25 02:09:00,
2013-03-24 21:14:00,27.7,24.9,29.96,North,0,2.3,0.0,89,0.00,CLR,,0.00,WeatherDisplay:10.37,2013-03-25 02:14:00,
2013-03-24 21:19:00,27.5,24.7,29.96,North,0,0.0,0.0,89,0.00,CLR,,0.00,WeatherDisplay:10.37,2013-03-25 02:19:00,
2013-03-24 21:24:00,27.5,24.7,29.96,NNW,338,4.6,4.6,89,0.00,CLR,,0.00,WeatherDisplay:10.37,2013-03-25 02:24:00,
2013-03-24 21:29:00,27.5,25.0,29.96,NNW,338,3.5,3.5,90,0.00,CLR,,0.00,WeatherDisplay:10.37,2013-03-25 02:29:00,
2013-03-24 21:34:00,27.5,25.0,29.96,NNW,338,8.1,8.1,90,0.00,CLR,,0.00,WeatherDisplay:10.37,2013-03-25 02:34:00,
2013-03-24 21:39:00,27.3,24.8,29.96,NNW,338,0.0,0.0,90,0.00,CLR,,0.00,WeatherDisplay:10.37,2013-03-25 02:39:00,
2013-03-24 21:44:00,27.5,25.0,29.96,North,0,4.6,0.0,90,0.00,CLR,,0.00,WeatherDisplay:10.37,2013-03-25 02:44:00,
2013-03-24 21:49:00,27.5,25.0,29.96,North,0,2.3,2.6,90,0.00,CLR,,0.00,WeatherDisplay:10.37,2013-03-25 02:49:00,
2013-03-24 21:54:00,27.3,24.8,29.96,NNW,338,0.0,0.0,90,0.00,CLR,,0.00,WeatherDisplay:10.37,2013-03-25 02:54:00,
2013-03-24 21:59:00,27.3,24.8,29.96,North,0,5.9,6.4,90,0.00,CLR,,0.00,WeatherDisplay:10.37,2013-03-25 02:59:00,
2013-03-24 22:04:00,27.3,24.8,29.96,North,0,0.0,0.0,90,0.00,CLR,,0.00,WeatherDisplay:10.37,2013-03-25 03:04:00,
2013-03-24 22:09:00,27.3,24.8,29.96,North,0,7.0,7.0,90,0.00,CLR,,0.00,WeatherDisplay:10.37,2013-03-25 03:09:00,
2013-03-24 22:14:00,27.3,24.8,29.96,NNE,22,5.8,5.8,90,0.00,CLR,,0.00,WeatherDisplay:10.37,2013-03-25 03:14:00,
2013-03-24 22:19:00,27.3,24.8,29.96,North,0,6.9,7.6,90,0.00,CLR,,0.00,WeatherDisplay:10.37,2013-03-25 03:19:00,
2013-03-24 22:24:00,27.3,24.8,29.96,North,0,3.5,3.5,90,0.00,CLR,,0.00,WeatherDisplay:10.37,2013-03-25 03:24:00,
2013-03-24 22:29:00,27.3,25.0,29.96,North,0,8.1,8.7,91,0.00,CLR,,0.00,WeatherDisplay:10.37,2013-03-25 03:29:00,
2013-03-24 22:34:00,27.5,25.2,29.96,North,0,4.6,5.0,91,0.00,CLR,,0.00,WeatherDisplay:10.37,2013-03-25 03:34:00,
2013-03-24 22:39:00,27.3,25.0,29.96,North,0,6.9,6.9,91,0.00,CLR,,0.00,WeatherDisplay:10.37,2013-03-25 03:39:00,
2013-03-24 22:44:00,27.3,25.0,29.96,North,0,3.5,3.5,91,0.00,CLR,,0.00,WeatherDisplay:10.37,2013-03-25 03:44:00,
2013-03-24 22:49:00,27.3,25.0,29.96,NNW,338,7.0,7.0,91,0.00,CLR,,0.00,WeatherDisplay:10.37,2013-03-25 03:49:00,
2013-03-24 22:54:00,27.5,25.2,29.96,North,0,1.4,1.4,91,0.00,CLR,,0.00,WeatherDisplay:10.37,2013-03-25 03:54:00,
2013-03-24 22:59:00,27.3,25.0,29.96,North,0,0.0,0.0,91,0.00,CLR,,0.00,WeatherDisplay:10.37,2013-03-25 03:59:00,
2013-03-24 23:00:00,27.5,25.2,29.96,North,0,0.0,0.0,91,0.00,CLR,,0.00,WeatherDisplay:10.37,2013-03-25 04:00:00,
2013-03-24 23:01:00,27.5,25.2,29.96,North,0,0.0,0.0,91,0.00,CLR,,0.00,WeatherDisplay:10.37,2013-03-25 04:01:00,
2013-03-24 23:06:00,27.5,25.2,29.97,North,0,5.8,5.8,91,0.00,CLR,,0.00,WeatherDisplay:10.37,2013-03-25 04:06:00,
2013-03-24 23:12:00,27.7,25.4,29.96,North,0,3.5,3.8,91,0.00,CLR,,0.00,WeatherDisplay:10.37,2013-03-25 04:12:00,
2013-03-24 23:17:00,27.5,25.2,29.96,North,0,3.5,3.5,91,0.00,CLR,,0.00,WeatherDisplay:10.37,2013-03-25 04:17:00,
2013-03-24 23:22:00,27.7,25.4,29.96,North,0,3.5,3.5,91,0.00,CLR,,0.00,WeatherDisplay:10.37,2013-03-25 04:22:00,
2013-03-24 23:27:00,27.7,25.7,29.96,North,0,0.0,0.0,92,0.00,CLR,,0.00,WeatherDisplay:10.37,2013-03-25 04:27:00,
2013-03-24 23:32:00,27.5,25.5,29.96,North,0,1.4,1.4,92,0.00,CLR,,0.00,WeatherDisplay:10.37,2013-03-25 04:32:00,
2013-03-24 23:37:00,27.5,25.5,29.96,NNW,338,5.8,0.0,92,0.00,CLR,,0.00,WeatherDisplay:10.37,2013-03-25 04:37:00,
2013-03-24 23:42:00,27.5,25.5,29.96,North,0,1.1,1.7,92,0.00,CLR,,0.00,WeatherDisplay:10.37,2013-03-25 04:42:00,
2013-03-24 23:47:00,27.5,25.5,29.96,NNW,338,0.0,0.0,92,0.00,CLR,,0.00,WeatherDisplay:10.37,2013-03-25 04:47:00,
2013-03-24 23:52:00,27.5,25.5,29.96,North,0,4.6,5.2,92,0.00,CLR,,0.00,WeatherDisplay:10.37,2013-03-25 04:52:00,
2013-03-24 23:57:00,27.5,25.5,29.96,North,0,4.3,4.3,92,0.00,CLR,,0.00,WeatherDisplay:10.37,2013-03-25 04:57:00,